Skip Navigation Links
NOAA logo - Click to go to the NOAA homepage
NOAA's National Weather Service
Alaska Aviation Weather Unit
  NWS logo - Click to go to the NWS homepage
Left Navbar Graphic     21 AKDT = 05 GMT

   
NOAA is celebrating 200 years of science, service, and stewardship. Visit the NOAA 200th celebration Web site to learn more.
USA.gov is the U.S. Government's official Web portal to all Federal, state and local government Web resources and services.
Facebook
NWS on Facebook

AAWU Home :: Display TAF Add Bookmark
METAR PARY 262356Z AUTO 11007KT 10SM CLR 09/M02 A2956=

METAR PARY 270056Z AUTO 04004KT 10SM SCT047 09/M02 A2956=

METAR PARY 270156Z AUTO VRB05KT 10SM CLR 10/M03 A2955=

METAR PARY 270256Z AUTO 07007KT 10SM FEW050 10/M02 A2956=

METAR PARY 270356Z AUTO 09005KT 10SM CLR 09/M02 A2956=

METAR PARY 270456Z AUTO 08007KT 10SM CLR 08/M02 A2957 RMK AO2 SLP044
 T00831022=


NOAA's National Weather Service
Alaska Aviation Weather Unit
6930 Sand Lake Road
Anchorage, AK 99502-1845
Disclaimer
Credits
Glossary
Privacy Policy
About Us
Career Opportunities
Contact AAWU Internet Services Site last modified: April, 17th 2012